sensor_id;sensor_type;location;lat;lon;timestamp;pressure;altitude;pressure_sealevel;temperature;humidity
9139;BME280;4604;48.616;9.548;2023-03-14T00:00:38;95414.38;;;10.68;100.00
9139;BME280;4604;48.616;9.548;2023-03-14T00:03:05;95387.38;;;10.58;100.00
9139;BME280;4604;48.616;9.548;2023-03-14T00:05:33;95403.16;;;10.43;100.00
9139;BME280;4604;48.616;9.548;2023-03-14T00:08:00;95411.13;;;10.58;100.00
9139;BME280;4604;48.616;9.548;2023-03-14T00:10:27;95394.84;;;10.55;100.00
9139;BME280;4604;48.616;9.548;2023-03-14T00:12:53;95391.38;;;10.54;100.00
9139;BME280;4604;48.616;9.548;2023-03-14T00:15:21;95389.44;;;10.48;100.00
9139;BME280;4604;48.616;9.548;2023-03-14T00:17:48;95390.63;;;10.45;100.00
9139;BME280;4604;48.616;9.548;2023-03-14T00:20:14;95382.53;;;10.47;100.00
9139;BME280;4604;48.616;9.548;2023-03-14T00:22:41;95379.09;;;10.46;100.00
9139;BME280;4604;48.616;9.548;2023-03-14T00:25:09;95344.16;;;10.44;100.00
9139;BME280;4604;48.616;9.548;2023-03-14T00:27:36;95319.31;;;10.39;100.00
9139;BME280;4604;48.616;9.548;2023-03-14T00:30:04;95241.56;;;10.35;100.00
9139;BME280;4604;48.616;9.548;2023-03-14T00:32:34;95200.09;;;10.43;100.00
9139;BME280;4604;48.616;9.548;2023-03-14T00:35:01;95208.91;;;10.36;100.00
9139;BME280;4604;48.616;9.548;2023-03-14T00:37:28;95234.88;;;10.24;100.00
9139;BME280;4604;48.616;9.548;2023-03-14T00:39:55;95232.56;;;10.29;100.00
9139;BME280;4604;48.616;9.548;2023-03-14T00:42:22;95224.47;;;10.31;100.00
9139;BME280;4604;48.616;9.548;2023-03-14T00:44:49;95255.94;;;10.24;100.00
9139;BME280;4604;48.616;9.548;2023-03-14T00:47:17;95261.06;;;10.25;100.00
9139;BME280;4604;48.616;9.548;2023-03-14T00:49:45;95253.69;;;10.21;100.00
9139;BME280;4604;48.616;9.548;2023-03-14T00:52:12;95254.97;;;10.25;100.00
9139;BME280;4604;48.616;9.548;2023-03-14T00:54:38;95268.16;;;10.25;99.71
9139;BME280;4604;48.616;9.548;2023-03-14T00:57:05;95283.09;;;10.33;98.67
9139;BME280;4604;48.616;9.548;2023-03-14T00:59:32;95288.06;;;10.27;96.82
9139;BME280;4604;48.616;9.548;2023-03-14T01:01:59;95295.66;;;10.31;97.06
9139;BME280;4604;48.616;9.548;2023-03-14T01:04:25;95296.66;;;10.30;97.96
9139;BME280;4604;48.616;9.548;2023-03-14T01:06:53;95307.28;;;10.36;95.29
9139;BME280;4604;48.616;9.548;2023-03-14T01:09:20;95298.56;;;10.36;95.56
9139;BME280;4604;48.616;9.548;2023-03-14T01:11:46;95305.81;;;10.34;97.27
9139;BME280;4604;48.616;9.548;2023-03-14T01:14:14;95305.50;;;10.37;97.34
9139;BME280;4604;48.616;9.548;2023-03-14T01:16:40;95320.66;;;10.35;98.32
9139;BME280;4604;48.616;9.548;2023-03-14T01:19:08;95299.75;;;10.33;99.05
9139;BME280;4604;48.616;9.548;2023-03-14T01:21:35;95303.88;;;10.27;99.92
9139;BME280;4604;48.616;9.548;2023-03-14T01:24:05;95309.13;;;10.36;99.55
9139;BME280;4604;48.616;9.548;2023-03-14T01:26:33;95301.84;;;10.38;98.77
9139;BME280;4604;48.616;9.548;2023-03-14T01:29:00;95294.09;;;10.36;99.36
9139;BME280;4604;48.616;9.548;2023-03-14T01:31:27;95282.94;;;10.34;98.49
9139;BME280;4604;48.616;9.548;2023-03-14T01:33:54;95265.19;;;10.28;99.59
9139;BME280;4604;48.616;9.548;2023-03-14T01:36:20;95280.03;;;10.29;99.24
9139;BME280;4604;48.616;9.548;2023-03-14T01:38:47;95290.06;;;10.25;100.00
9139;BME280;4604;48.616;9.548;2023-03-14T01:41:16;95278.47;;;10.35;99.16
9139;BME280;4604;48.616;9.548;2023-03-14T01:43:43;95287.09;;;10.28;100.00
9139;BME280;4604;48.616;9.548;2023-03-14T01:46:38;95270.78;;;10.25;100.00
9139;BME280;4604;48.616;9.548;2023-03-14T01:49:11;95266.66;;;10.31;100.00
9139;BME280;4604;48.616;9.548;2023-03-14T01:51:44;95261.38;;;10.31;96.00
9139;BME280;4604;48.616;9.548;2023-03-14T01:54:16;95270.13;;;10.46;95.88
9139;BME280;4604;48.616;9.548;2023-03-14T01:56:52;95275.59;;;10.44;96.28
9139;BME280;4604;48.616;9.548;2023-03-14T01:59:20;95258.69;;;10.39;97.82
9139;BME280;4604;48.616;9.548;2023-03-14T02:01:47;95262.78;;;10.56;94.58
9139;BME280;4604;48.616;9.548;2023-03-14T02:04:16;95266.88;;;10.59;94.87
9139;BME280;4604;48.616;9.548;2023-03-14T02:06:50;95255.78;;;10.48;96.20
9139;BME280;4604;48.616;9.548;2023-03-14T02:09:18;95245.56;;;10.45;96.33
9139;BME280;4604;48.616;9.548;2023-03-14T02:11:47;95238.78;;;10.51;95.92
9139;BME280;4604;48.616;9.548;2023-03-14T02:14:20;95246.75;;;10.43;97.01
9139;BME280;4604;48.616;9.548;2023-03-14T02:16:50;95254.22;;;10.39;96.07
9139;BME280;4604;48.616;9.548;2023-03-14T02:19:24;95259.50;;;10.54;95.92
9139;BME280;4604;48.616;9.548;2023-03-14T02:21:57;95250.19;;;10.43;96.99
9139;BME280;4604;48.616;9.548;2023-03-14T02:24:32;95255.84;;;10.55;95.44
9139;BME280;4604;48.616;9.548;2023-03-14T02:27:09;95248.16;;;10.54;96.12
9139;BME280;4604;48.616;9.548;2023-03-14T02:29:40;95226.56;;;10.50;94.63
9139;BME280;4604;48.616;9.548;2023-03-14T02:32:09;95224.41;;;10.54;95.09
9139;BME280;4604;48.616;9.548;2023-03-14T02:34:37;95227.22;;;10.52;95.35
9139;BME280;4604;48.616;9.548;2023-03-14T02:37:04;95215.84;;;10.66;94.07
9139;BME280;4604;48.616;9.548;2023-03-14T02:39:35;95203.22;;;10.47;96.04
9139;BME280;4604;48.616;9.548;2023-03-14T02:42:05;95206.38;;;10.57;95.86
9139;BME280;4604;48.616;9.548;2023-03-14T02:44:32;95212.94;;;10.46;94.41
9139;BME280;4604;48.616;9.548;2023-03-14T02:47:00;95223.41;;;10.55;94.70
9139;BME280;4604;48.616;9.548;2023-03-14T02:49:28;95215.66;;;10.68;93.89
9139;BME280;4604;48.616;9.548;2023-03-14T02:51:58;95209.28;;;10.62;94.28
9139;BME280;4604;48.616;9.548;2023-03-14T02:54:24;95201.47;;;10.84;92.68
9139;BME280;4604;48.616;9.548;2023-03-14T02:56:51;95208.47;;;10.77;92.39
9139;BME280;4604;48.616;9.548;2023-03-14T02:59:19;95192.94;;;10.67;93.76
9139;BME280;4604;48.616;9.548;2023-03-14T03:01:46;95193.09;;;10.65;92.47
9139;BME280;4604;48.616;9.548;2023-03-14T03:04:12;95201.91;;;10.73;91.76
9139;BME280;4604;48.616;9.548;2023-03-14T03:06:39;95198.56;;;10.64;92.03
9139;BME280;4604;48.616;9.548;2023-03-14T03:09:05;95198.56;;;10.64;92.31
9139;BME280;4604;48.616;9.548;2023-03-14T03:11:32;95201.47;;;10.69;92.09
9139;BME280;4604;48.616;9.548;2023-03-14T03:13:59;95191.09;;;10.67;92.57
9139;BME280;4604;48.616;9.548;2023-03-14T03:16:26;95190.19;;;10.60;92.23
9139;BME280;4604;48.616;9.548;2023-03-14T03:18:53;95178.56;;;10.55;93.21
9139;BME280;4604;48.616;9.548;2023-03-14T03:21:20;95154.09;;;10.76;89.33
9139;BME280;4604;48.616;9.548;2023-03-14T03:23:48;95172.09;;;10.57;89.73
9139;BME280;4604;48.616;9.548;2023-03-14T03:26:15;95170.28;;;10.58;90.95
9139;BME280;4604;48.616;9.548;2023-03-14T03:28:41;95169.84;;;10.54;89.11
9139;BME280;4604;48.616;9.548;2023-03-14T03:31:09;95173.03;;;10.26;87.18
9139;BME280;4604;48.616;9.548;2023-03-14T03:33:37;95166.66;;;10.29;87.51
9139;BME280;4604;48.616;9.548;2023-03-14T03:36:04;95140.91;;;10.31;86.22
9139;BME280;4604;48.616;9.548;2023-03-14T03:38:31;95135.28;;;10.34;86.08
9139;BME280;4604;48.616;9.548;2023-03-14T03:40:58;95123.28;;;10.46;83.61
9139;BME280;4604;48.616;9.548;2023-03-14T03:43:24;95119.88;;;10.53;82.24
9139;BME280;4604;48.616;9.548;2023-03-14T03:45:51;95121.97;;;10.57;81.74
9139;BME280;4604;48.616;9.548;2023-03-14T03:48:18;95130.44;;;10.38;78.23
9139;BME280;4604;48.616;9.548;2023-03-14T03:50:46;95112.59;;;10.25;79.21
9139;BME280;4604;48.616;9.548;2023-03-14T03:53:13;95108.09;;;10.48;78.79
9139;BME280;4604;48.616;9.548;2023-03-14T03:55:40;95114.44;;;10.54;74.79
9139;BME280;4604;48.616;9.548;2023-03-14T03:58:07;95117.91;;;10.55;73.94
9139;BME280;4604;48.616;9.548;2023-03-14T04:00:34;95120.34;;;10.56;73.89
9139;BME280;4604;48.616;9.548;2023-03-14T04:03:00;95115.16;;;10.48;73.95
9139;BME280;4604;48.616;9.548;2023-03-14T04:05:27;95120.25;;;10.64;72.76
9139;BME280;4604;48.616;9.548;2023-03-14T04:07:55;95125.44;;;10.43;73.02
9139;BME280;4604;48.616;9.548;2023-03-14T04:10:22;95131.81;;;10.34;73.42
9139;BME280;4604;48.616;9.548;2023-03-14T04:12:48;95137.00;;;10.57;73.17
9139;BME280;4604;48.616;9.548;2023-03-14T04:15:15;95131.38;;;10.45;72.67
9139;BME280;4604;48.616;9.548;2023-03-14T04:17:42;95137.44;;;10.45;73.52
9139;BME280;4604;48.616;9.548;2023-03-14T04:20:09;95115.56;;;10.30;73.11
9139;BME280;4604;48.616;9.548;2023-03-14T04:22:37;95121.72;;;10.37;73.55
9139;BME280;4604;48.616;9.548;2023-03-14T04:25:07;95130.00;;;10.49;72.26
9139;BME280;4604;48.616;9.548;2023-03-14T04:27:33;95118.09;;;10.38;72.23
9139;BME280;4604;48.616;9.548;2023-03-14T04:30:00;95124.75;;;10.34;72.29
9139;BME280;4604;48.616;9.548;2023-03-14T04:32:26;95119.19;;;10.44;73.50
9139;BME280;4604;48.616;9.548;2023-03-14T04:34:53;95125.19;;;10.38;72.62
9139;BME280;4604;48.616;9.548;2023-03-14T04:37:20;95108.31;;;10.24;73.13
9139;BME280;4604;48.616;9.548;2023-03-14T04:39:47;95118.44;;;10.35;73.22
9139;BME280;4604;48.616;9.548;2023-03-14T04:42:15;95110.34;;;10.22;73.42
9139;BME280;4604;48.616;9.548;2023-03-14T04:44:41;95098.34;;;10.49;72.49
9139;BME280;4604;48.616;9.548;2023-03-14T04:47:08;95091.06;;;10.36;72.42
9139;BME280;4604;48.616;9.548;2023-03-14T04:49:35;95098.44;;;10.41;72.56
9139;BME280;4604;48.616;9.548;2023-03-14T04:52:02;95106.16;;;10.27;72.13
9139;BME280;4604;48.616;9.548;2023-03-14T04:54:29;95081.69;;;10.19;72.19
9139;BME280;4604;48.616;9.548;2023-03-14T04:56:56;95070.97;;;10.05;72.86
9139;BME280;4604;48.616;9.548;2023-03-14T04:59:24;95069.41;;;10.26;72.03
9139;BME280;4604;48.616;9.548;2023-03-14T05:01:50;95038.34;;;10.36;71.37
9139;BME280;4604;48.616;9.548;2023-03-14T05:04:17;95064.78;;;10.43;70.87
9139;BME280;4604;48.616;9.548;2023-03-14T05:06:44;95049.19;;;10.41;70.43
9139;BME280;4604;48.616;9.548;2023-03-14T05:09:11;95039.25;;;10.43;70.53
9139;BME280;4604;48.616;9.548;2023-03-14T05:11:37;95055.19;;;10.35;69.32
9139;BME280;4604;48.616;9.548;2023-03-14T05:14:04;95050.69;;;10.50;69.99
9139;BME280;4604;48.616;9.548;2023-03-14T05:16:32;95061.06;;;10.22;70.68
9139;BME280;4604;48.616;9.548;2023-03-14T05:18:58;95063.25;;;10.34;70.53
9139;BME280;4604;48.616;9.548;2023-03-14T05:21:26;95052.16;;;10.23;71.21
9139;BME280;4604;48.616;9.548;2023-03-14T05:23:53;95041.81;;;10.37;70.85
9139;BME280;4604;48.616;9.548;2023-03-14T05:26:19;95044.34;;;10.15;70.46
9139;BME280;4604;48.616;9.548;2023-03-14T05:28:46;95040.41;;;10.26;70.97
9139;BME280;4604;48.616;9.548;2023-03-14T05:31:12;95027.25;;;10.26;71.38
9139;BME280;4604;48.616;9.548;2023-03-14T05:33:41;95023.44;;;10.14;72.51
9139;BME280;4604;48.616;9.548;2023-03-14T05:36:08;95020.72;;;10.22;71.72
9139;BME280;4604;48.616;9.548;2023-03-14T05:38:35;95017.34;;;10.13;71.23
9139;BME280;4604;48.616;9.548;2023-03-14T05:41:01;95025.34;;;10.20;72.46
9139;BME280;4604;48.616;9.548;2023-03-14T05:43:28;95031.69;;;10.25;72.13
9139;BME280;4604;48.616;9.548;2023-03-14T05:45:55;95036.63;;;10.14;72.11
9139;BME280;4604;48.616;9.548;2023-03-14T05:48:21;95031.25;;;10.22;70.67
9139;BME280;4604;48.616;9.548;2023-03-14T05:50:54;95032.44;;;10.19;71.58
9139;BME280;4604;48.616;9.548;2023-03-14T05:53:22;95024.34;;;10.06;71.41
9139;BME280;4604;48.616;9.548;2023-03-14T05:55:51;95016.63;;;10.19;71.93
9139;BME280;4604;48.616;9.548;2023-03-14T05:58:17;95026.97;;;10.21;72.41
9139;BME280;4604;48.616;9.548;2023-03-14T06:00:44;95008.16;;;10.24;70.71
9139;BME280;4604;48.616;9.548;2023-03-14T06:03:11;95011.41;;;10.26;70.67
9139;BME280;4604;48.616;9.548;2023-03-14T06:05:37;95017.84;;;10.32;70.95
9139;BME280;4604;48.616;9.548;2023-03-14T06:08:05;95016.91;;;10.24;70.82
9139;BME280;4604;48.616;9.548;2023-03-14T06:10:32;95015.78;;;10.19;70.77
9139;BME280;4604;48.616;9.548;2023-03-14T06:13:00;95022.09;;;10.33;70.85
9139;BME280;4604;48.616;9.548;2023-03-14T06:15:27;95014.00;;;10.19;72.48
9139;BME280;4604;48.616;9.548;2023-03-14T06:17:54;95012.34;;;10.18;72.64
9139;BME280;4604;48.616;9.548;2023-03-14T06:20:20;95015.50;;;10.43;69.35
9139;BME280;4604;48.616;9.548;2023-03-14T06:22:47;95007.16;;;10.40;70.47
9139;BME280;4604;48.616;9.548;2023-03-14T06:25:15;95002.00;;;10.32;72.79
9139;BME280;4604;48.616;9.548;2023-03-14T06:27:42;95013.41;;;10.24;72.22
9139;BME280;4604;48.616;9.548;2023-03-14T06:30:09;95018.16;;;10.28;72.25
9139;BME280;4604;48.616;9.548;2023-03-14T06:32:36;95006.94;;;10.05;70.92
9139;BME280;4604;48.616;9.548;2023-03-14T06:35:03;95017.44;;;10.20;72.12
9139;BME280;4604;48.616;9.548;2023-03-14T06:37:30;95012.53;;;10.17;73.87
9139;BME280;4604;48.616;9.548;2023-03-14T06:39:57;95021.56;;;10.07;72.19
9139;BME280;4604;48.616;9.548;2023-03-14T06:42:25;95022.00;;;10.11;70.42
9139;BME280;4604;48.616;9.548;2023-03-14T06:44:52;95018.38;;;10.12;71.45
9139;BME280;4604;48.616;9.548;2023-03-14T06:47:18;95027.91;;;10.28;70.39
9139;BME280;4604;48.616;9.548;2023-03-14T06:49:45;95022.16;;;10.24;70.54
9139;BME280;4604;48.616;9.548;2023-03-14T06:52:12;95028.06;;;10.26;70.76
9139;BME280;4604;48.616;9.548;2023-03-14T06:54:38;95022.81;;;10.41;69.97
9139;BME280;4604;48.616;9.548;2023-03-14T06:57:05;95031.69;;;10.40;70.91
9139;BME280;4604;48.616;9.548;2023-03-14T06:59:33;95014.91;;;10.41;70.86
9139;BME280;4604;48.616;9.548;2023-03-14T07:02:00;95029.19;;;10.32;71.43
9139;BME280;4604;48.616;9.548;2023-03-14T07:04:26;95031.06;;;10.38;69.02
9139;BME280;4604;48.616;9.548;2023-03-14T07:06:53;95035.34;;;10.39;69.93
9139;BME280;4604;48.616;9.548;2023-03-14T07:09:20;95020.78;;;10.43;69.31
9139;BME280;4604;48.616;9.548;2023-03-14T07:11:46;95013.41;;;10.54;71.09
9139;BME280;4604;48.616;9.548;2023-03-14T07:14:13;95016.47;;;10.57;72.85
9139;BME280;4604;48.616;9.548;2023-03-14T07:16:41;95020.13;;;10.56;74.84
9139;BME280;4604;48.616;9.548;2023-03-14T07:19:07;95028.03;;;10.56;77.21
9139;BME280;4604;48.616;9.548;2023-03-14T07:21:34;95015.16;;;10.68;78.14
9139;BME280;4604;48.616;9.548;2023-03-14T07:24:00;95026.41;;;10.55;79.50
9139;BME280;4604;48.616;9.548;2023-03-14T07:26:27;95033.13;;;10.58;79.94
9139;BME280;4604;48.616;9.548;2023-03-14T07:28:54;95035.59;;;10.59;80.17
9139;BME280;4604;48.616;9.548;2023-03-14T07:31:20;95033.75;;;10.60;79.61
9139;BME280;4604;48.616;9.548;2023-03-14T07:33:48;95040.31;;;10.64;78.51
9139;BME280;4604;48.616;9.548;2023-03-14T07:36:15;95041.03;;;10.58;78.96
9139;BME280;4604;48.616;9.548;2023-03-14T07:38:42;95048.72;;;10.74;79.00
9139;BME280;4604;48.616;9.548;2023-03-14T07:41:09;95053.81;;;10.76;79.55
9139;BME280;4604;48.616;9.548;2023-03-14T07:43:35;95059.19;;;10.67;79.25
9139;BME280;4604;48.616;9.548;2023-03-14T07:46:02;95051.91;;;10.69;80.00
9139;BME280;4604;48.616;9.548;2023-03-14T07:48:29;95050.03;;;10.85;77.03
9139;BME280;4604;48.616;9.548;2023-03-14T07:50:57;95049.56;;;10.96;76.62
9139;BME280;4604;48.616;9.548;2023-03-14T07:53:24;95055.34;;;11.06;76.09
9139;BME280;4604;48.616;9.548;2023-03-14T07:55:52;95051.06;;;11.27;74.53
9139;BME280;4604;48.616;9.548;2023-03-14T07:58:19;95050.78;;;11.43;71.56
9139;BME280;4604;48.616;9.548;2023-03-14T08:00:47;95050.47;;;11.81;68.35
9139;BME280;4604;48.616;9.548;2023-03-14T08:06:26;95006.06;;;11.63;66.93
9139;BME280;4604;48.616;9.548;2023-03-14T08:09:12;95028.69;;;11.79;66.77
9139;BME280;4604;48.616;9.548;2023-03-14T08:15:02;95052.69;;;12.06;65.28
9139;BME280;4604;48.616;9.548;2023-03-14T08:17:29;95046.94;;;11.95;63.61
9139;BME280;4604;48.616;9.548;2023-03-14T08:19:56;95057.13;;;11.98;63.75
9139;BME280;4604;48.616;9.548;2023-03-14T08:22:24;95052.19;;;11.89;62.94
9139;BME280;4604;48.616;9.548;2023-03-14T08:24:50;95046.97;;;11.74;62.56
9139;BME280;4604;48.616;9.548;2023-03-14T08:27:17;95039.38;;;11.92;62.85
9139;BME280;4604;48.616;9.548;2023-03-14T08:29:43;95037.34;;;11.94;63.25
9139;BME280;4604;48.616;9.548;2023-03-14T08:32:10;95039.88;;;12.03;62.41
9139;BME280;4604;48.616;9.548;2023-03-14T08:34:37;95042.16;;;11.84;61.93
9139;BME280;4604;48.616;9.548;2023-03-14T08:37:04;95043.63;;;11.65;62.15
9139;BME280;4604;48.616;9.548;2023-03-14T08:39:33;95044.63;;;11.86;63.15
9139;BME280;4604;48.616;9.548;2023-03-14T08:41:59;95041.75;;;11.81;62.67
9139;BME280;4604;48.616;9.548;2023-03-14T08:44:26;95043.69;;;11.72;62.29
9139;BME280;4604;48.616;9.548;2023-03-14T08:46:52;95032.06;;;11.94;62.84
9139;BME280;4604;48.616;9.548;2023-03-14T08:49:19;95034.94;;;11.93;62.20
9139;BME280;4604;48.616;9.548;2023-03-14T08:51:46;95031.84;;;11.89;61.78
9139;BME280;4604;48.616;9.548;2023-03-14T08:54:13;95026.13;;;11.86;60.42
9139;BME280;4604;48.616;9.548;2023-03-14T08:56:41;95021.81;;;12.13;59.25
9139;BME280;4604;48.616;9.548;2023-03-14T08:59:08;95024.50;;;12.19;59.85
9139;BME280;4604;48.616;9.548;2023-03-14T09:01:36;95020.66;;;12.22;60.22
9139;BME280;4604;48.616;9.548;2023-03-14T09:04:02;95016.56;;;12.19;58.53
9139;BME280;4604;48.616;9.548;2023-03-14T09:06:29;95040.75;;;12.16;58.86
9139;BME280;4604;48.616;9.548;2023-03-14T09:08:56;95036.41;;;12.50;59.10
9139;BME280;4604;48.616;9.548;2023-03-14T09:11:22;95039.97;;;12.71;58.67
9139;BME280;4604;48.616;9.548;2023-03-14T09:13:50;95041.97;;;12.62;57.76
9139;BME280;4604;48.616;9.548;2023-03-14T09:16:17;95048.84;;;12.50;57.95
9139;BME280;4604;48.616;9.548;2023-03-14T09:18:44;95054.78;;;12.58;57.56
9139;BME280;4604;48.616;9.548;2023-03-14T09:21:10;95034.84;;;12.69;57.98
9139;BME280;4604;48.616;9.548;2023-03-14T09:23:38;95054.78;;;12.58;56.95
9139;BME280;4604;48.616;9.548;2023-03-14T09:26:06;95046.53;;;12.88;57.51
9139;BME280;4604;48.616;9.548;2023-03-14T09:28:32;95055.88;;;12.84;57.38
9139;BME280;4604;48.616;9.548;2023-03-14T09:31:06;95063.84;;;12.91;58.19
9139;BME280;4604;48.616;9.548;2023-03-14T09:33:35;95064.47;;;13.06;57.78
9139;BME280;4604;48.616;9.548;2023-03-14T09:36:02;95069.41;;;13.22;57.96
9139;BME280;4604;48.616;9.548;2023-03-14T09:38:29;95078.97;;;13.23;58.08
9139;BME280;4604;48.616;9.548;2023-03-14T09:40:57;95056.81;;;13.44;57.11
9139;BME280;4604;48.616;9.548;2023-03-14T09:43:26;95080.06;;;13.56;56.06
9139;BME280;4604;48.616;9.548;2023-03-14T09:45:55;95104.84;;;13.21;58.74
9139;BME280;4604;48.616;9.548;2023-03-14T09:48:27;95085.22;;;12.89;59.59
9139;BME280;4604;48.616;9.548;2023-03-14T09:50:58;95073.63;;;12.90;59.95
9139;BME280;4604;48.616;9.548;2023-03-14T09:53:34;95106.84;;;12.51;60.85
9139;BME280;4604;48.616;9.548;2023-03-14T09:56:04;95117.66;;;12.56;61.51
9139;BME280;4604;48.616;9.548;2023-03-14T09:58:37;95097.34;;;12.63;60.84
9139;BME280;4604;48.616;9.548;2023-03-14T10:01:09;95099.84;;;12.78;60.38
9139;BME280;4604;48.616;9.548;2023-03-14T10:03:40;95100.66;;;12.79;60.90
9139;BME280;4604;48.616;9.548;2023-03-14T10:06:11;95097.56;;;12.69;61.64
9139;BME280;4604;48.616;9.548;2023-03-14T10:08:39;95106.34;;;12.76;61.81
9139;BME280;4604;48.616;9.548;2023-03-14T10:11:06;95112.50;;;12.90;60.06
9139;BME280;4604;48.616;9.548;2023-03-14T10:13:32;95119.91;;;13.14;60.08
9139;BME280;4604;48.616;9.548;2023-03-14T10:16:01;95105.44;;;12.55;61.81
9139;BME280;4604;48.616;9.548;2023-03-14T10:18:30;95132.81;;;12.76;61.51
9139;BME280;4604;48.616;9.548;2023-03-14T10:21:11;95110.47;;;12.85;62.37
9139;BME280;4604;48.616;9.548;2023-03-14T10:23:43;95112.56;;;13.16;61.60
9139;BME280;4604;48.616;9.548;2023-03-14T10:26:13;95100.66;;;12.79;61.72
9139;BME280;4604;48.616;9.548;2023-03-14T10:28:43;95117.84;;;13.03;61.50
9139;BME280;4604;48.616;9.548;2023-03-14T10:31:10;95103.81;;;13.16;59.97
9139;BME280;4604;48.616;9.548;2023-03-14T10:33:38;95098.13;;;13.12;61.09
9139;BME280;4604;48.616;9.548;2023-03-14T10:36:17;95087.81;;;12.76;61.59
9139;BME280;4604;48.616;9.548;2023-03-14T10:38:46;95099.34;;;13.16;60.15
9139;BME280;4604;48.616;9.548;2023-03-14T10:41:16;95094.09;;;13.30;60.31
9139;BME280;4604;48.616;9.548;2023-03-14T10:43:43;95102.31;;;13.68;60.01
9139;BME280;4604;48.616;9.548;2023-03-14T10:46:14;95099.66;;;13.68;58.74
9139;BME280;4604;48.616;9.548;2023-03-14T10:48:42;95091.69;;;13.81;59.29
9139;BME280;4604;48.616;9.548;2023-03-14T10:51:19;95082.28;;;13.99;57.93
9139;BME280;4604;48.616;9.548;2023-03-14T10:53:47;95088.22;;;14.01;57.29
9139;BME280;4604;48.616;9.548;2023-03-14T10:56:17;95087.41;;;13.80;57.68
9139;BME280;4604;48.616;9.548;2023-03-14T10:58:45;95090.28;;;13.59;58.70
9139;BME280;4604;48.616;9.548;2023-03-14T11:01:29;95095.97;;;13.42;58.86
9139;BME280;4604;48.616;9.548;2023-03-14T11:04:06;95091.19;;;13.11;59.63
9139;BME280;4604;48.616;9.548;2023-03-14T11:06:43;95081.41;;;13.18;59.90
9139;BME280;4604;48.616;9.548;2023-03-14T11:09:16;95090.84;;;13.47;59.15
9139;BME280;4604;48.616;9.548;2023-03-14T11:11:46;95092.75;;;12.85;59.99
9139;BME280;4604;48.616;9.548;2023-03-14T11:14:20;95093.16;;;12.89;61.37
9139;BME280;4604;48.616;9.548;2023-03-14T11:16:53;95089.47;;;12.83;60.87
9139;BME280;4604;48.616;9.548;2023-03-14T11:19:32;95091.78;;;13.00;61.14
9139;BME280;4604;48.616;9.548;2023-03-14T11:22:14;95103.75;;;12.89;62.72
9139;BME280;4604;48.616;9.548;2023-03-14T11:24:59;95104.41;;;12.50;68.13
9139;BME280;4604;48.616;9.548;2023-03-14T11:27:34;95112.28;;;12.36;69.18
9139;BME280;4604;48.616;9.548;2023-03-14T11:30:19;95124.81;;;12.28;70.97
9139;BME280;4604;48.616;9.548;2023-03-14T11:32:53;95130.16;;;12.06;72.83
9139;BME280;4604;48.616;9.548;2023-03-14T11:35:25;95110.13;;;12.18;71.51
9139;BME280;4604;48.616;9.548;2023-03-14T11:37:56;95133.38;;;12.02;74.09
9139;BME280;4604;48.616;9.548;2023-03-14T11:40:27;95134.66;;;12.06;75.19
9139;BME280;4604;48.616;9.548;2023-03-14T11:42:59;95150.50;;;12.06;78.98
9139;BME280;4604;48.616;9.548;2023-03-14T11:45:31;95137.44;;;11.76;80.66
9139;BME280;4604;48.616;9.548;2023-03-14T11:48:13;95146.13;;;11.48;85.03
9139;BME280;4604;48.616;9.548;2023-03-14T11:50:42;95149.59;;;11.27;82.20
9139;BME280;4604;48.616;9.548;2023-03-14T11:53:15;95144.81;;;11.59;83.09
9139;BME280;4604;48.616;9.548;2023-03-14T11:55:44;95152.91;;;11.57;83.99
9139;BME280;4604;48.616;9.548;2023-03-14T11:58:15;95145.84;;;11.37;84.69
9139;BME280;4604;48.616;9.548;2023-03-14T12:00:44;95161.16;;;11.48;86.82
9139;BME280;4604;48.616;9.548;2023-03-14T12:03:18;95167.78;;;11.59;82.65
9139;BME280;4604;48.616;9.548;2023-03-14T12:05:56;95161.69;;;11.00;85.44
9139;BME280;4604;48.616;9.548;2023-03-14T12:08:37;95183.63;;;11.01;85.39
9139;BME280;4604;48.616;9.548;2023-03-14T12:11:10;95177.34;;;10.87;86.24
9139;BME280;4604;48.616;9.548;2023-03-14T12:13:39;95158.81;;;10.80;87.84
9139;BME280;4604;48.616;9.548;2023-03-14T12:16:18;95173.34;;;10.91;86.92
9139;BME280;4604;48.616;9.548;2023-03-14T12:18:46;95181.13;;;11.14;86.00
9139;BME280;4604;48.616;9.548;2023-03-14T12:21:13;95187.84;;;11.17;84.42
9139;BME280;4604;48.616;9.548;2023-03-14T12:23:44;95184.09;;;10.75;83.91
9139;BME280;4604;48.616;9.548;2023-03-14T12:26:19;95206.13;;;10.67;84.99
9139;BME280;4604;48.616;9.548;2023-03-14T12:28:50;95190.38;;;10.59;87.44
9139;BME280;4604;48.616;9.548;2023-03-14T12:31:37;95201.31;;;10.70;85.82
9139;BME280;4604;48.616;9.548;2023-03-14T12:34:24;95225.94;;;10.63;85.81
9139;BME280;4604;48.616;9.548;2023-03-14T12:36:56;95232.84;;;10.49;86.43
9139;BME280;4604;48.616;9.548;2023-03-14T12:39:33;95228.28;;;10.43;91.48
9139;BME280;4604;48.616;9.548;2023-03-14T12:42:03;95259.81;;;10.36;93.39
9139;BME280;4604;48.616;9.548;2023-03-14T12:44:45;95256.81;;;10.01;94.99
9139;BME280;4604;48.616;9.548;2023-03-14T12:47:52;95237.50;;;10.24;94.25
9139;BME280;4604;48.616;9.548;2023-03-14T12:50:34;95268.31;;;10.23;96.76
9139;BME280;4604;48.616;9.548;2023-03-14T12:53:17;95275.59;;;10.21;99.35
9139;BME280;4604;48.616;9.548;2023-03-14T12:55:53;95265.03;;;10.21;96.08
9139;BME280;4604;48.616;9.548;2023-03-14T12:58:28;95270.84;;;10.17;97.55
9139;BME280;4604;48.616;9.548;2023-03-14T13:01:00;95297.69;;;10.20;93.80
9139;BME280;4604;48.616;9.548;2023-03-14T13:03:38;95293.94;;;9.92;91.10
9139;BME280;4604;48.616;9.548;2023-03-14T13:06:08;95297.16;;;10.02;88.18
9139;BME280;4604;48.616;9.548;2023-03-14T13:08:38;95331.63;;;9.92;86.46
9139;BME280;4604;48.616;9.548;2023-03-14T13:11:09;95337.44;;;9.88;87.65
9139;BME280;4604;48.616;9.548;2023-03-14T13:13:41;95335.13;;;9.93;82.47
9139;BME280;4604;48.616;9.548;2023-03-14T13:16:14;95377.88;;;10.03;72.64
9139;BME280;4604;48.616;9.548;2023-03-14T13:18:42;95374.53;;;10.09;72.53
9139;BME280;4604;48.616;9.548;2023-03-14T13:21:12;95368.00;;;9.97;68.62
9139;BME280;4604;48.616;9.548;2023-03-14T13:23:39;95388.56;;;10.01;65.30
9139;BME280;4604;48.616;9.548;2023-03-14T13:26:13;95391.25;;;9.93;62.09
9139;BME280;4604;48.616;9.548;2023-03-14T13:28:41;95426.50;;;9.53;56.88
9139;BME280;4604;48.616;9.548;2023-03-14T13:31:18;95421.97;;;9.30;58.30
9139;BME280;4604;48.616;9.548;2023-03-14T13:33:46;95427.22;;;9.30;59.49
9139;BME280;4604;48.616;9.548;2023-03-14T13:36:13;95436.78;;;9.23;58.29
9139;BME280;4604;48.616;9.548;2023-03-14T13:38:39;95466.41;;;9.17;56.94